sensor_id;sensor_type;location;lat;lon;timestamp;temperature;humidity
15364;DHT22;7781;49.690;6.472;2023-02-01T00:01:53;5.70;99.90
15364;DHT22;7781;49.690;6.472;2023-02-01T00:04:22;5.80;99.90
15364;DHT22;7781;49.690;6.472;2023-02-01T00:06:54;5.80;99.90
15364;DHT22;7781;49.690;6.472;2023-02-01T00:09:26;5.80;99.90
15364;DHT22;7781;49.690;6.472;2023-02-01T00:11:55;5.80;99.90
15364;DHT22;7781;49.690;6.472;2023-02-01T00:14:26;5.80;99.90
15364;DHT22;7781;49.690;6.472;2023-02-01T00:16:55;5.80;99.90
15364;DHT22;7781;49.690;6.472;2023-02-01T00:19:27;5.80;99.90
15364;DHT22;7781;49.690;6.472;2023-02-01T00:21:57;5.80;99.90
15364;DHT22;7781;49.690;6.472;2023-02-01T00:24:27;5.80;99.90
15364;DHT22;7781;49.690;6.472;2023-02-01T00:26:56;5.80;99.90
15364;DHT22;7781;49.690;6.472;2023-02-01T00:29:24;5.80;99.90
15364;DHT22;7781;49.690;6.472;2023-02-01T00:31:55;5.80;99.90
15364;DHT22;7781;49.690;6.472;2023-02-01T00:34:24;5.80;99.90
15364;DHT22;7781;49.690;6.472;2023-02-01T00:36:55;5.80;99.90
15364;DHT22;7781;49.690;6.472;2023-02-01T00:39:23;5.80;99.90
15364;DHT22;7781;49.690;6.472;2023-02-01T00:41:53;5.80;99.90
15364;DHT22;7781;49.690;6.472;2023-02-01T00:44:26;5.80;99.90
15364;DHT22;7781;49.690;6.472;2023-02-01T00:46:56;5.80;99.90
15364;DHT22;7781;49.690;6.472;2023-02-01T00:49:24;5.80;99.90
15364;DHT22;7781;49.690;6.472;2023-02-01T00:51:55;5.70;99.90
15364;DHT22;7781;49.690;6.472;2023-02-01T00:54:25;5.80;99.90
15364;DHT22;7781;49.690;6.472;2023-02-01T00:56:56;5.80;99.90
15364;DHT22;7781;49.690;6.472;2023-02-01T00:59:25;5.80;99.90
15364;DHT22;7781;49.690;6.472;2023-02-01T01:01:54;5.80;99.90
15364;DHT22;7781;49.690;6.472;2023-02-01T01:04:23;5.80;99.90
15364;DHT22;7781;49.690;6.472;2023-02-01T01:06:52;5.80;99.90
15364;DHT22;7781;49.690;6.472;2023-02-01T01:09:22;5.70;99.90
15364;DHT22;7781;49.690;6.472;2023-02-01T01:11:51;5.80;99.90
15364;DHT22;7781;49.690;6.472;2023-02-01T01:14:21;5.80;99.90
15364;DHT22;7781;49.690;6.472;2023-02-01T01:16:50;5.90;99.90
15364;DHT22;7781;49.690;6.472;2023-02-01T01:19:20;5.90;99.90
15364;DHT22;7781;49.690;6.472;2023-02-01T01:21:49;5.90;99.90
15364;DHT22;7781;49.690;6.472;2023-02-01T01:24:19;5.90;99.90
15364;DHT22;7781;49.690;6.472;2023-02-01T01:26:47;5.90;99.90
15364;DHT22;7781;49.690;6.472;2023-02-01T01:29:17;6.00;99.90
15364;DHT22;7781;49.690;6.472;2023-02-01T01:31:47;6.00;99.90
15364;DHT22;7781;49.690;6.472;2023-02-01T01:34:16;6.00;99.90
15364;DHT22;7781;49.690;6.472;2023-02-01T01:36:46;6.00;99.90
15364;DHT22;7781;49.690;6.472;2023-02-01T01:39:15;6.10;99.90
15364;DHT22;7781;49.690;6.472;2023-02-01T01:41:44;6.10;99.90
15364;DHT22;7781;49.690;6.472;2023-02-01T01:44:58;6.10;99.90
15364;DHT22;7781;49.690;6.472;2023-02-01T01:47:33;6.10;99.90
15364;DHT22;7781;49.690;6.472;2023-02-01T01:50:07;6.10;99.90
15364;DHT22;7781;49.690;6.472;2023-02-01T01:52:39;6.10;99.90
15364;DHT22;7781;49.690;6.472;2023-02-01T01:55:09;6.10;99.90
15364;DHT22;7781;49.690;6.472;2023-02-01T01:57:44;6.10;99.90
15364;DHT22;7781;49.690;6.472;2023-02-01T02:00:16;6.10;99.90
15364;DHT22;7781;49.690;6.472;2023-02-01T02:02:56;6.10;99.90
15364;DHT22;7781;49.690;6.472;2023-02-01T02:05:26;6.20;99.90
15364;DHT22;7781;49.690;6.472;2023-02-01T02:07:59;6.20;99.90
15364;DHT22;7781;49.690;6.472;2023-02-01T02:10:32;6.20;99.90
15364;DHT22;7781;49.690;6.472;2023-02-01T02:13:19;6.20;99.90
15364;DHT22;7781;49.690;6.472;2023-02-01T02:15:56;6.20;99.90
15364;DHT22;7781;49.690;6.472;2023-02-01T02:18:35;6.20;99.90
15364;DHT22;7781;49.690;6.472;2023-02-01T02:21:19;6.20;99.90
15364;DHT22;7781;49.690;6.472;2023-02-01T02:27:07;6.30;99.90
15364;DHT22;7781;49.690;6.472;2023-02-01T02:30:13;6.20;99.90
15364;DHT22;7781;49.690;6.472;2023-02-01T02:36:09;6.20;99.90
15364;DHT22;7781;49.690;6.472;2023-02-01T02:38:47;6.20;99.90
15364;DHT22;7781;49.690;6.472;2023-02-01T02:41:20;6.10;99.90
15364;DHT22;7781;49.690;6.472;2023-02-01T02:44:10;6.10;99.90
15364;DHT22;7781;49.690;6.472;2023-02-01T02:47:03;6.00;99.90
15364;DHT22;7781;49.690;6.472;2023-02-01T02:50:01;6.00;99.90
15364;DHT22;7781;49.690;6.472;2023-02-01T02:52:53;5.90;99.90
15364;DHT22;7781;49.690;6.472;2023-02-01T02:55:43;5.90;99.90
15364;DHT22;7781;49.690;6.472;2023-02-01T02:58:19;5.90;99.90
15364;DHT22;7781;49.690;6.472;2023-02-01T03:01:06;5.90;99.90
15364;DHT22;7781;49.690;6.472;2023-02-01T03:03:53;5.90;99.90
15364;DHT22;7781;49.690;6.472;2023-02-01T03:06:40;5.90;99.90
15364;DHT22;7781;49.690;6.472;2023-02-01T03:09:15;5.90;99.90
15364;DHT22;7781;49.690;6.472;2023-02-01T03:11:46;6.00;99.90
15364;DHT22;7781;49.690;6.472;2023-02-01T03:14:36;6.00;99.90
15364;DHT22;7781;49.690;6.472;2023-02-01T03:17:09;5.90;99.90
15364;DHT22;7781;49.690;6.472;2023-02-01T03:19:42;5.90;99.90
15364;DHT22;7781;49.690;6.472;2023-02-01T03:22:19;5.90;99.90
15364;DHT22;7781;49.690;6.472;2023-02-01T03:24:54;5.90;99.90
15364;DHT22;7781;49.690;6.472;2023-02-01T03:27:30;5.90;99.90
15364;DHT22;7781;49.690;6.472;2023-02-01T03:30:06;5.90;99.90
15364;DHT22;7781;49.690;6.472;2023-02-01T03:32:38;5.90;99.90
15364;DHT22;7781;49.690;6.472;2023-02-01T03:35:27;5.90;99.90
15364;DHT22;7781;49.690;6.472;2023-02-01T03:38:02;5.90;99.90
15364;DHT22;7781;49.690;6.472;2023-02-01T03:40:39;6.00;99.90
15364;DHT22;7781;49.690;6.472;2023-02-01T03:43:14;6.00;99.90
15364;DHT22;7781;49.690;6.472;2023-02-01T03:45:52;6.00;99.90
15364;DHT22;7781;49.690;6.472;2023-02-01T03:48:23;6.00;99.90
15364;DHT22;7781;49.690;6.472;2023-02-01T03:50:55;6.00;99.90
15364;DHT22;7781;49.690;6.472;2023-02-01T03:53:25;6.00;99.90
15364;DHT22;7781;49.690;6.472;2023-02-01T03:55:57;6.00;99.90
15364;DHT22;7781;49.690;6.472;2023-02-01T03:58:28;6.00;99.90
15364;DHT22;7781;49.690;6.472;2023-02-01T04:00:58;6.00;99.90
15364;DHT22;7781;49.690;6.472;2023-02-01T04:03:33;5.90;99.90
15364;DHT22;7781;49.690;6.472;2023-02-01T04:06:03;6.00;99.90
15364;DHT22;7781;49.690;6.472;2023-02-01T04:08:33;6.00;99.90
15364;DHT22;7781;49.690;6.472;2023-02-01T04:11:05;6.00;99.90
15364;DHT22;7781;49.690;6.472;2023-02-01T04:13:33;6.00;99.90
15364;DHT22;7781;49.690;6.472;2023-02-01T04:16:04;6.00;99.90
15364;DHT22;7781;49.690;6.472;2023-02-01T04:18:33;6.00;99.90
15364;DHT22;7781;49.690;6.472;2023-02-01T04:21:04;6.00;99.90
15364;DHT22;7781;49.690;6.472;2023-02-01T04:23:32;6.00;99.90
15364;DHT22;7781;49.690;6.472;2023-02-01T04:26:02;6.00;99.90
15364;DHT22;7781;49.690;6.472;2023-02-01T04:28:32;6.00;99.90
15364;DHT22;7781;49.690;6.472;2023-02-01T04:31:01;6.00;99.90
15364;DHT22;7781;49.690;6.472;2023-02-01T04:33:30;6.00;99.90
15364;DHT22;7781;49.690;6.472;2023-02-01T04:36:00;6.00;99.90
15364;DHT22;7781;49.690;6.472;2023-02-01T04:38:29;6.00;99.90
15364;DHT22;7781;49.690;6.472;2023-02-01T04:40:59;6.10;99.90
15364;DHT22;7781;49.690;6.472;2023-02-01T04:43:27;6.10;99.90
15364;DHT22;7781;49.690;6.472;2023-02-01T04:45:58;6.20;99.90
15364;DHT22;7781;49.690;6.472;2023-02-01T04:48:26;6.10;99.90
15364;DHT22;7781;49.690;6.472;2023-02-01T04:50:56;6.20;99.90
15364;DHT22;7781;49.690;6.472;2023-02-01T04:53:25;6.20;99.90
15364;DHT22;7781;49.690;6.472;2023-02-01T04:55:54;6.10;99.90
15364;DHT22;7781;49.690;6.472;2023-02-01T04:58:22;6.20;99.90
15364;DHT22;7781;49.690;6.472;2023-02-01T05:00:54;6.10;99.90
15364;DHT22;7781;49.690;6.472;2023-02-01T05:03:26;6.20;99.90
15364;DHT22;7781;49.690;6.472;2023-02-01T05:05:55;6.20;99.90
15364;DHT22;7781;49.690;6.472;2023-02-01T05:08:25;6.30;99.90
15364;DHT22;7781;49.690;6.472;2023-02-01T05:10:56;6.30;99.90
15364;DHT22;7781;49.690;6.472;2023-02-01T05:13:25;6.30;99.90
15364;DHT22;7781;49.690;6.472;2023-02-01T05:16:12;6.30;99.90
15364;DHT22;7781;49.690;6.472;2023-02-01T05:18:42;6.30;99.90
15364;DHT22;7781;49.690;6.472;2023-02-01T05:21:11;6.20;99.90
15364;DHT22;7781;49.690;6.472;2023-02-01T05:23:39;6.20;99.90
15364;DHT22;7781;49.690;6.472;2023-02-01T05:26:22;6.20;99.90
15364;DHT22;7781;49.690;6.472;2023-02-01T05:28:54;6.20;99.90
15364;DHT22;7781;49.690;6.472;2023-02-01T05:31:23;6.10;99.90
15364;DHT22;7781;49.690;6.472;2023-02-01T05:33:55;6.10;99.90
15364;DHT22;7781;49.690;6.472;2023-02-01T05:36:23;6.10;99.90
15364;DHT22;7781;49.690;6.472;2023-02-01T05:38:52;6.10;99.90
15364;DHT22;7781;49.690;6.472;2023-02-01T05:41:21;6.10;99.90
15364;DHT22;7781;49.690;6.472;2023-02-01T05:43:50;6.20;99.90
15364;DHT22;7781;49.690;6.472;2023-02-01T05:46:21;6.10;99.90
15364;DHT22;7781;49.690;6.472;2023-02-01T05:48:51;6.10;99.90
15364;DHT22;7781;49.690;6.472;2023-02-01T05:51:21;6.10;99.90
15364;DHT22;7781;49.690;6.472;2023-02-01T05:53:51;6.10;99.90
15364;DHT22;7781;49.690;6.472;2023-02-01T05:56:20;6.20;99.90
15364;DHT22;7781;49.690;6.472;2023-02-01T05:58:49;6.10;99.90
15364;DHT22;7781;49.690;6.472;2023-02-01T06:01:19;6.10;99.90
15364;DHT22;7781;49.690;6.472;2023-02-01T06:03:51;6.10;99.90
15364;DHT22;7781;49.690;6.472;2023-02-01T06:06:21;6.10;99.90
15364;DHT22;7781;49.690;6.472;2023-02-01T06:08:52;6.00;99.90
15364;DHT22;7781;49.690;6.472;2023-02-01T06:11:21;6.00;99.90
15364;DHT22;7781;49.690;6.472;2023-02-01T06:13:58;6.00;99.90
15364;DHT22;7781;49.690;6.472;2023-02-01T06:16:27;6.00;99.90
15364;DHT22;7781;49.690;6.472;2023-02-01T06:18:57;6.00;99.90
15364;DHT22;7781;49.690;6.472;2023-02-01T06:21:28;6.00;99.90
15364;DHT22;7781;49.690;6.472;2023-02-01T06:23:56;6.10;99.90
15364;DHT22;7781;49.690;6.472;2023-02-01T06:26:25;6.10;99.90
15364;DHT22;7781;49.690;6.472;2023-02-01T06:28:56;6.20;99.90
15364;DHT22;7781;49.690;6.472;2023-02-01T06:31:26;6.10;99.90
15364;DHT22;7781;49.690;6.472;2023-02-01T06:33:57;6.10;94.20
15364;DHT22;7781;49.690;6.472;2023-02-01T06:36:28;6.00;92.60
15364;DHT22;7781;49.690;6.472;2023-02-01T06:38:56;6.00;97.90
15364;DHT22;7781;49.690;6.472;2023-02-01T06:41:28;5.90;97.60
15364;DHT22;7781;49.690;6.472;2023-02-01T06:43:57;5.80;99.90
15364;DHT22;7781;49.690;6.472;2023-02-01T06:46:26;5.70;99.90
15364;DHT22;7781;49.690;6.472;2023-02-01T06:48:55;5.70;99.90
15364;DHT22;7781;49.690;6.472;2023-02-01T06:51:26;5.70;99.90
15364;DHT22;7781;49.690;6.472;2023-02-01T06:53:57;5.60;99.90
15364;DHT22;7781;49.690;6.472;2023-02-01T06:56:26;5.50;99.90
15364;DHT22;7781;49.690;6.472;2023-02-01T06:58:54;5.50;99.90
15364;DHT22;7781;49.690;6.472;2023-02-01T07:01:23;5.40;99.90
15364;DHT22;7781;49.690;6.472;2023-02-01T07:03:52;5.40;99.90
15364;DHT22;7781;49.690;6.472;2023-02-01T07:06:20;5.40;99.90
15364;DHT22;7781;49.690;6.472;2023-02-01T07:08:49;5.30;99.90
15364;DHT22;7781;49.690;6.472;2023-02-01T07:11:20;5.30;99.90
15364;DHT22;7781;49.690;6.472;2023-02-01T07:13:48;5.30;99.90
15364;DHT22;7781;49.690;6.472;2023-02-01T07:16:18;5.30;99.90
15364;DHT22;7781;49.690;6.472;2023-02-01T07:18:49;5.30;99.90
15364;DHT22;7781;49.690;6.472;2023-02-01T07:21:19;5.20;99.90
15364;DHT22;7781;49.690;6.472;2023-02-01T07:23:50;5.20;99.90
15364;DHT22;7781;49.690;6.472;2023-02-01T07:26:20;5.20;99.90
15364;DHT22;7781;49.690;6.472;2023-02-01T07:28:49;5.10;99.90
15364;DHT22;7781;49.690;6.472;2023-02-01T07:31:20;5.10;99.90
15364;DHT22;7781;49.690;6.472;2023-02-01T07:33:50;5.10;99.90
15364;DHT22;7781;49.690;6.472;2023-02-01T07:36:20;5.10;99.90
15364;DHT22;7781;49.690;6.472;2023-02-01T07:38:49;5.10;99.90
15364;DHT22;7781;49.690;6.472;2023-02-01T07:41:24;5.10;99.90
15364;DHT22;7781;49.690;6.472;2023-02-01T07:43:54;5.10;99.90
15364;DHT22;7781;49.690;6.472;2023-02-01T07:46:23;5.10;99.90
15364;DHT22;7781;49.690;6.472;2023-02-01T07:48:52;5.10;99.90
15364;DHT22;7781;49.690;6.472;2023-02-01T07:51:21;5.10;99.90
15364;DHT22;7781;49.690;6.472;2023-02-01T07:53:52;5.10;99.90
15364;DHT22;7781;49.690;6.472;2023-02-01T07:56:23;5.10;99.90
15364;DHT22;7781;49.690;6.472;2023-02-01T07:58:54;5.10;99.90
15364;DHT22;7781;49.690;6.472;2023-02-01T08:01:28;5.10;99.90
15364;DHT22;7781;49.690;6.472;2023-02-01T08:03:58;5.10;99.90
15364;DHT22;7781;49.690;6.472;2023-02-01T08:06:29;5.10;99.90
15364;DHT22;7781;49.690;6.472;2023-02-01T08:08:59;5.10;99.90
15364;DHT22;7781;49.690;6.472;2023-02-01T08:11:30;5.10;99.90
15364;DHT22;7781;49.690;6.472;2023-02-01T08:14:01;5.20;99.90
15364;DHT22;7781;49.690;6.472;2023-02-01T08:16:30;5.20;99.90
15364;DHT22;7781;49.690;6.472;2023-02-01T08:19:00;5.20;99.90
15364;DHT22;7781;49.690;6.472;2023-02-01T08:21:29;5.20;99.90
15364;DHT22;7781;49.690;6.472;2023-02-01T08:24:05;5.20;99.90
15364;DHT22;7781;49.690;6.472;2023-02-01T08:26:36;5.20;99.90
15364;DHT22;7781;49.690;6.472;2023-02-01T08:29:06;5.20;99.90
15364;DHT22;7781;49.690;6.472;2023-02-01T08:31:37;5.30;99.90
15364;DHT22;7781;49.690;6.472;2023-02-01T08:34:08;5.30;99.90
15364;DHT22;7781;49.690;6.472;2023-02-01T08:36:39;5.30;99.90
15364;DHT22;7781;49.690;6.472;2023-02-01T08:39:09;5.30;99.90
15364;DHT22;7781;49.690;6.472;2023-02-01T08:41:41;5.30;99.90
15364;DHT22;7781;49.690;6.472;2023-02-01T08:44:30;5.30;99.90
15364;DHT22;7781;49.690;6.472;2023-02-01T08:46:59;5.40;99.90
15364;DHT22;7781;49.690;6.472;2023-02-01T08:49:28;5.40;99.90
15364;DHT22;7781;49.690;6.472;2023-02-01T08:51:57;5.40;99.90
15364;DHT22;7781;49.690;6.472;2023-02-01T08:54:34;5.40;99.90
15364;DHT22;7781;49.690;6.472;2023-02-01T08:57:05;5.40;99.90
15364;DHT22;7781;49.690;6.472;2023-02-01T08:59:33;5.40;99.90
15364;DHT22;7781;49.690;6.472;2023-02-01T09:02:02;5.40;99.90
15364;DHT22;7781;49.690;6.472;2023-02-01T09:04:32;5.40;99.90
15364;DHT22;7781;49.690;6.472;2023-02-01T09:07:02;5.50;99.90
15364;DHT22;7781;49.690;6.472;2023-02-01T09:09:33;5.50;99.90
15364;DHT22;7781;49.690;6.472;2023-02-01T09:12:03;5.50;99.90
15364;DHT22;7781;49.690;6.472;2023-02-01T09:14:34;5.60;99.90
15364;DHT22;7781;49.690;6.472;2023-02-01T09:17:05;5.60;99.90
15364;DHT22;7781;49.690;6.472;2023-02-01T09:19:36;5.60;99.90
15364;DHT22;7781;49.690;6.472;2023-02-01T09:22:09;5.60;99.90
15364;DHT22;7781;49.690;6.472;2023-02-01T09:24:38;5.70;99.90
15364;DHT22;7781;49.690;6.472;2023-02-01T09:27:06;5.60;99.90
15364;DHT22;7781;49.690;6.472;2023-02-01T09:29:41;5.60;99.90
15364;DHT22;7781;49.690;6.472;2023-02-01T09:32:10;5.60;99.90
15364;DHT22;7781;49.690;6.472;2023-02-01T09:34:38;5.70;99.90
15364;DHT22;7781;49.690;6.472;2023-02-01T09:37:07;5.70;99.90
15364;DHT22;7781;49.690;6.472;2023-02-01T09:39:37;5.70;99.90
15364;DHT22;7781;49.690;6.472;2023-02-01T09:42:16;5.70;99.90
15364;DHT22;7781;49.690;6.472;2023-02-01T09:45:13;5.80;99.90
15364;DHT22;7781;49.690;6.472;2023-02-01T09:47:48;5.80;99.90
15364;DHT22;7781;49.690;6.472;2023-02-01T09:50:18;5.80;99.90
15364;DHT22;7781;49.690;6.472;2023-02-01T09:52:54;5.90;99.90
15364;DHT22;7781;49.690;6.472;2023-02-01T09:55:30;5.90;99.90
15364;DHT22;7781;49.690;6.472;2023-02-01T09:58:05;5.90;99.20
15364;DHT22;7781;49.690;6.472;2023-02-01T10:00:37;6.00;75.80
15364;DHT22;7781;49.690;6.472;2023-02-01T10:03:11;5.90;81.70
15364;DHT22;7781;49.690;6.472;2023-02-01T10:06:02;5.90;83.50
15364;DHT22;7781;49.690;6.472;2023-02-01T10:08:44;5.90;82.40
15364;DHT22;7781;49.690;6.472;2023-02-01T10:11:27;5.90;90.50
15364;DHT22;7781;49.690;6.472;2023-02-01T10:14:01;6.00;59.90
15364;DHT22;7781;49.690;6.472;2023-02-01T10:16:39;6.00;71.00
15364;DHT22;7781;49.690;6.472;2023-02-01T10:19:28;6.00;59.20
15364;DHT22;7781;49.690;6.472;2023-02-01T10:22:03;6.00;51.50
15364;DHT22;7781;49.690;6.472;2023-02-01T10:24:42;6.00;60.20
15364;DHT22;7781;49.690;6.472;2023-02-01T10:27:14;6.00;70.30
15364;DHT22;7781;49.690;6.472;2023-02-01T10:29:47;6.00;94.60
15364;DHT22;7781;49.690;6.472;2023-02-01T10:32:21;6.00;72.00
15364;DHT22;7781;49.690;6.472;2023-02-01T10:34:57;6.00;82.20
15364;DHT22;7781;49.690;6.472;2023-02-01T10:37:29;6.10;79.40
15364;DHT22;7781;49.690;6.472;2023-02-01T10:40:01;6.10;90.60
15364;DHT22;7781;49.690;6.472;2023-02-01T10:42:32;6.20;80.80
15364;DHT22;7781;49.690;6.472;2023-02-01T10:45:03;6.30;75.80
15364;DHT22;7781;49.690;6.472;2023-02-01T10:47:34;6.30;64.40
15364;DHT22;7781;49.690;6.472;2023-02-01T10:50:13;6.40;64.30
15364;DHT22;7781;49.690;6.472;2023-02-01T10:52:47;6.30;40.90
15364;DHT22;7781;49.690;6.472;2023-02-01T10:55:30;6.40;46.70
15364;DHT22;7781;49.690;6.472;2023-02-01T10:58:02;6.40;57.10
15364;DHT22;7781;49.690;6.472;2023-02-01T11:00:41;6.40;37.30
15364;DHT22;7781;49.690;6.472;2023-02-01T11:03:34;6.50;35.90
15364;DHT22;7781;49.690;6.472;2023-02-01T11:06:09;6.60;42.50
15364;DHT22;7781;49.690;6.472;2023-02-01T11:08:44;6.60;38.00
15364;DHT22;7781;49.690;6.472;2023-02-01T11:11:14;6.60;27.50
15364;DHT22;7781;49.690;6.472;2023-02-01T11:13:56;6.60;26.10
15364;DHT22;7781;49.690;6.472;2023-02-01T11:16:31;6.70;40.80
15364;DHT22;7781;49.690;6.472;2023-02-01T11:19:03;6.70;31.50
15364;DHT22;7781;49.690;6.472;2023-02-01T11:21:32;6.70;30.40
15364;DHT22;7781;49.690;6.472;2023-02-01T11:24:02;6.80;36.60
15364;DHT22;7781;49.690;6.472;2023-02-01T11:26:32;6.80;16.00
15364;DHT22;7781;49.690;6.472;2023-02-01T11:29:03;6.80;9.90
15364;DHT22;7781;49.690;6.472;2023-02-01T11:31:33;6.80;7.30
15364;DHT22;7781;49.690;6.472;2023-02-01T11:34:09;6.90;8.70
15364;DHT22;7781;49.690;6.472;2023-02-01T11:36:41;7.00;1.00
15364;DHT22;7781;49.690;6.472;2023-02-01T11:39:21;7.00;7.00
15364;DHT22;7781;49.690;6.472;2023-02-01T11:41:58;7.00;9.20
15364;DHT22;7781;49.690;6.472;2023-02-01T11:44:32;6.90;2.80
15364;DHT22;7781;49.690;6.472;2023-02-01T11:47:26;6.90;1.00
15364;DHT22;7781;49.690;6.472;2023-02-01T11:49:58;6.90;1.00
15364;DHT22;7781;49.690;6.472;2023-02-01T11:52:48;6.90;5.50
15364;DHT22;7781;49.690;6.472;2023-02-01T11:55:37;6.90;1.00
15364;DHT22;7781;49.690;6.472;2023-02-01T11:58:26;7.00;1.00
15364;DHT22;7781;49.690;6.472;2023-02-01T12:01:20;7.10;1.00
15364;DHT22;7781;49.690;6.472;2023-02-01T12:07:04;7.00;1.00
15364;DHT22;7781;49.690;6.472;2023-02-01T12:09:51;7.00;1.00
15364;DHT22;7781;49.690;6.472;2023-02-01T12:12:27;7.00;1.00
15364;DHT22;7781;49.690;6.472;2023-02-01T12:15:22;7.00;1.00
15364;DHT22;7781;49.690;6.472;2023-02-01T12:18:26;7.00;1.00
15364;DHT22;7781;49.690;6.472;2023-02-01T12:21:26;7.10;1.00
15364;DHT22;7781;49.690;6.472;2023-02-01T12:27:12;7.00;1.00
15364;DHT22;7781;49.690;6.472;2023-02-01T12:29:55;7.10;99.90
15364;DHT22;7781;49.690;6.472;2023-02-01T12:32:39;7.00;1.00
15364;DHT22;7781;49.690;6.472;2023-02-01T12:35:31;7.10;1.00
15364;DHT22;7781;49.690;6.472;2023-02-01T12:38:17;7.10;99.90
15364;DHT22;7781;49.690;6.472;2023-02-01T12:41:02;7.10;99.90
15364;DHT22;7781;49.690;6.472;2023-02-01T12:43:42;7.20;99.90
15364;DHT22;7781;49.690;6.472;2023-02-01T12:46:14;7.10;1.00
15364;DHT22;7781;49.690;6.472;2023-02-01T12:48:53;7.10;99.90
15364;DHT22;7781;49.690;6.472;2023-02-01T12:51:27;7.20;99.90
15364;DHT22;7781;49.690;6.472;2023-02-01T12:54:02;7.20;56.80
15364;DHT22;7781;49.690;6.472;2023-02-01T12:56:37;7.20;20.80
15364;DHT22;7781;49.690;6.472;2023-02-01T12:59:17;7.20;1.00
15364;DHT22;7781;49.690;6.472;2023-02-01T13:01:54;7.30;1.00
15364;DHT22;7781;49.690;6.472;2023-02-01T13:04:30;7.60;1.00
15364;DHT22;7781;49.690;6.472;2023-02-01T13:07:05;7.70;1.00
15364;DHT22;7781;49.690;6.472;2023-02-01T13:09:40;7.50;99.90
15364;DHT22;7781;49.690;6.472;2023-02-01T13:12:15;7.50;99.90
15364;DHT22;7781;49.690;6.472;2023-02-01T13:14:52;7.60;99.90
15364;DHT22;7781;49.690;6.472;2023-02-01T13:17:27;7.70;99.90
15364;DHT22;7781;49.690;6.472;2023-02-01T13:20:03;7.70;99.90
15364;DHT22;7781;49.690;6.472;2023-02-01T13:22:37;7.70;99.90
15364;DHT22;7781;49.690;6.472;2023-02-01T13:25:15;7.70;99.90
15364;DHT22;7781;49.690;6.472;2023-02-01T13:27:53;7.60;99.90
15364;DHT22;7781;49.690;6.472;2023-02-01T13:30:30;7.70;99.90
15364;DHT22;7781;49.690;6.472;2023-02-01T13:33:40;7.60;1.00
15364;DHT22;7781;49.690;6.472;2023-02-01T13:39:57;7.50;1.00
15364;DHT22;7781;49.690;6.472;2023-02-01T13:42:30;7.50;1.00
15364;DHT22;7781;49.690;6.472;2023-02-01T13:45:01;7.50;1.00
15364;DHT22;7781;49.690;6.472;2023-02-01T13:47:40;7.50;1.00
15364;DHT22;7781;49.690;6.472;2023-02-01T13:50:22;7.50;1.00
15364;DHT22;7781;49.690;6.472;2023-02-01T13:52:56;7.40;1.00
15364;DHT22;7781;49.690;6.472;2023-02-01T13:55:33;7.40;1.00
15364;DHT22;7781;49.690;6.472;2023-02-01T13:58:17;7.40;1.00
15364;DHT22;7781;49.690;6.472;2023-02-01T14:00:50;7.40;1.00
15364;DHT22;7781;49.690;6.472;2023-02-01T14:03:21;7.40;1.00
15364;DHT22;7781;49.690;6.472;2023-02-01T14:06:03;7.40;1.00
15364;DHT22;7781;49.690;6.472;2023-02-01T14:08:45;7.50;1.00
15364;DHT22;7781;49.690;6.472;2023-02-01T14:11:35;7.50;1.00
15364;DHT22;7781;49.690;6.472;2023-02-01T14:23:30;7.80;1.00
15364;DHT22;7781;49.690;6.472;2023-02-01T14:26:16;7.90;1.00
15364;DHT22;7781;49.690;6.472;2023-02-01T14:29:03;7.90;10.60
15364;DHT22;7781;49.690;6.472;2023-02-01T14:32:01;8.10;1.00
15364;DHT22;7781;49.690;6.472;2023-02-01T14:34:40;8.40;1.00
15364;DHT22;7781;49.690;6.472;2023-02-01T14:37:26;8.50;1.00
15364;DHT22;7781;49.690;6.472;2023-02-01T14:40:04;8.50;99.90
15364;DHT22;7781;49.690;6.472;2023-02-01T14:42:39;8.50;99.90
15364;DHT22;7781;49.690;6.472;2023-02-01T14:45:48;8.70;99.90
15364;DHT22;7781;49.690;6.472;2023-02-01T14:48:41;8.70;99.90
15364;DHT22;7781;49.690;6.472;2023-02-01T14:51:15;8.60;99.90
15364;DHT22;7781;49.690;6.472;2023-02-01T14:53:46;8.50;21.50
15364;DHT22;7781;49.690;6.472;2023-02-01T14:56:17;8.40;10.30
15364;DHT22;7781;49.690;6.472;2023-02-01T14:58:52;8.30;99.90
15364;DHT22;7781;49.690;6.472;2023-02-01T15:01:25;8.10;99.90
15364;DHT22;7781;49.690;6.472;2023-02-01T15:04:02;8.20;99.90
15364;DHT22;7781;49.690;6.472;2023-02-01T15:06:38;8.00;99.90
15364;DHT22;7781;49.690;6.472;2023-02-01T15:09:14;8.00;99.90
15364;DHT22;7781;49.690;6.472;2023-02-01T15:11:59;7.90;1.00
15364;DHT22;7781;49.690;6.472;2023-02-01T15:14:30;7.90;1.00
15364;DHT22;7781;49.690;6.472;2023-02-01T15:16:59;7.90;1.00
15364;DHT22;7781;49.690;6.472;2023-02-01T15:19:29;7.80;1.00
15364;DHT22;7781;49.690;6.472;2023-02-01T15:21:58;7.70;1.00
15364;DHT22;7781;49.690;6.472;2023-02-01T15:24:29;7.70;2.60
15364;DHT22;7781;49.690;6.472;2023-02-01T15:27:04;7.80;5.00
15364;DHT22;7781;49.690;6.472;2023-02-01T15:29:33;7.80;28.40
15364;DHT22;7781;49.690;6.472;2023-02-01T15:32:03;7.80;65.10
15364;DHT22;7781;49.690;6.472;2023-02-01T15:34:47;7.80;1.00
15364;DHT22;7781;49.690;6.472;2023-02-01T15:37:21;7.80;1.00
15364;DHT22;7781;49.690;6.472;2023-02-01T15:40:19;7.80;22.10
15364;DHT22;7781;49.690;6.472;2023-02-01T15:42:53;7.70;29.70
15364;DHT22;7781;49.690;6.472;2023-02-01T15:45:27;7.60;55.30
15364;DHT22;7781;49.690;6.472;2023-02-01T15:48:00;7.50;99.90
15364;DHT22;7781;49.690;6.472;2023-02-01T15:50:31;7.50;99.90
15364;DHT22;7781;49.690;6.472;2023-02-01T15:52:59;7.60;99.90
15364;DHT22;7781;49.690;6.472;2023-02-01T15:55:34;7.50;99.90
15364;DHT22;7781;49.690;6.472;2023-02-01T15:58:07;7.40;1.00
15364;DHT22;7781;49.690;6.472;2023-02-01T16:00:43;7.50;1.00
15364;DHT22;7781;49.690;6.472;2023-02-01T16:03:25;7.50;1.00
15364;DHT22;7781;49.690;6.472;2023-02-01T16:05:56;7.50;1.00
15364;DHT22;7781;49.690;6.472;2023-02-01T16:08:27;7.50;1.00
15364;DHT22;7781;49.690;6.472;2023-02-01T16:11:01;7.50;1.00
15364;DHT22;7781;49.690;6.472;2023-02-01T16:13:43;7.40;1.00
15364;DHT22;7781;49.690;6.472;2023-02-01T16:16:11;7.40;1.00
15364;DHT22;7781;49.690;6.472;2023-02-01T16:18:42;7.30;1.00
15364;DHT22;7781;49.690;6.472;2023-02-01T16:21:11;7.30;1.00
15364;DHT22;7781;49.690;6.472;2023-02-01T16:23:40;7.20;44.70
15364;DHT22;7781;49.690;6.472;2023-02-01T16:26:14;7.20;99.90
15364;DHT22;7781;49.690;6.472;2023-02-01T16:28:45;7.20;99.90
15364;DHT22;7781;49.690;6.472;2023-02-01T16:31:14;7.10;99.90
15364;DHT22;7781;49.690;6.472;2023-02-01T16:33:49;7.10;99.90
15364;DHT22;7781;49.690;6.472;2023-02-01T16:36:19;7.10;99.90
15364;DHT22;7781;49.690;6.472;2023-02-01T16:38:52;7.00;99.90
15364;DHT22;7781;49.690;6.472;2023-02-01T16:41:22;7.00;99.90
15364;DHT22;7781;49.690;6.472;2023-02-01T16:43:54;7.00;99.90
15364;DHT22;7781;49.690;6.472;2023-02-01T16:46:25;6.90;1.00
15364;DHT22;7781;49.690;6.472;2023-02-01T16:48:56;7.00;1.00
15364;DHT22;7781;49.690;6.472;2023-02-01T16:51:28;7.00;1.00
15364;DHT22;7781;49.690;6.472;2023-02-01T16:53:59;7.00;1.00
15364;DHT22;7781;49.690;6.472;2023-02-01T16:56:30;6.90;1.00
15364;DHT22;7781;49.690;6.472;2023-02-01T16:59:00;6.80;1.00
15364;DHT22;7781;49.690;6.472;2023-02-01T17:01:29;6.80;1.00
15364;DHT22;7781;49.690;6.472;2023-02-01T17:03:59;6.80;1.00
15364;DHT22;7781;49.690;6.472;2023-02-01T17:06:30;6.70;1.00
15364;DHT22;7781;49.690;6.472;2023-02-01T17:09:00;6.70;1.00
15364;DHT22;7781;49.690;6.472;2023-02-01T17:11:32;6.60;1.00
15364;DHT22;7781;49.690;6.472;2023-02-01T17:14:14;6.60;1.00
15364;DHT22;7781;49.690;6.472;2023-02-01T17:16:44;6.50;1.00